sensor_id;sensor_type;location;lat;lon;timestamp;pressure;altitude;pressure_sealevel;temperature;humidity
63090;BME280;49174;43.198;27.824;2023-11-19T00:00:54;100561.00;;;2.43;100.00
63090;BME280;49174;43.198;27.824;2023-11-19T00:03:20;100580.63;;;2.42;100.00
63090;BME280;49174;43.198;27.824;2023-11-19T00:05:45;100603.31;;;2.46;100.00
63090;BME280;49174;43.198;27.824;2023-11-19T00:08:11;100596.03;;;2.48;100.00
63090;BME280;49174;43.198;27.824;2023-11-19T00:10:36;100602.31;;;2.47;100.00
63090;BME280;49174;43.198;27.824;2023-11-19T00:13:02;100596.03;;;2.48;100.00
63090;BME280;49174;43.198;27.824;2023-11-19T00:15:30;100604.03;;;2.48;100.00
63090;BME280;49174;43.198;27.824;2023-11-19T00:17:56;100617.34;;;2.48;100.00
63090;BME280;49174;43.198;27.824;2023-11-19T00:20:21;100631.31;;;2.50;100.00
63090;BME280;49174;43.198;27.824;2023-11-19T00:22:49;100642.97;;;2.49;100.00
63090;BME280;49174;43.198;27.824;2023-11-19T00:25:18;100641.97;;;2.50;100.00
63090;BME280;49174;43.198;27.824;2023-11-19T00:27:44;100652.63;;;2.50;100.00
63090;BME280;49174;43.198;27.824;2023-11-19T00:30:10;100661.31;;;2.52;100.00
63090;BME280;49174;43.198;27.824;2023-11-19T00:32:36;100682.34;;;2.55;100.00
63090;BME280;49174;43.198;27.824;2023-11-19T00:35:04;100663.84;;;2.54;100.00
63090;BME280;49174;43.198;27.824;2023-11-19T00:37:30;100694.94;;;2.53;100.00
63090;BME280;49174;43.198;27.824;2023-11-19T00:39:55;100690.63;;;2.52;100.00
63090;BME280;49174;43.198;27.824;2023-11-19T00:42:22;100691.03;;;2.57;100.00
63090;BME280;49174;43.198;27.824;2023-11-19T00:44:49;100699.00;;;2.57;100.00
63090;BME280;49174;43.198;27.824;2023-11-19T00:47:15;100710.50;;;2.58;100.00
63090;BME280;49174;43.198;27.824;2023-11-19T00:49:41;100715.69;;;2.59;100.00
63090;BME280;49174;43.198;27.824;2023-11-19T00:52:06;100727.03;;;2.61;100.00
63090;BME280;49174;43.198;27.824;2023-11-19T00:54:32;100721.56;;;2.63;100.00
63090;BME280;49174;43.198;27.824;2023-11-19T00:56:58;100740.22;;;2.63;100.00
63090;BME280;49174;43.198;27.824;2023-11-19T00:59:23;100734.72;;;2.64;100.00
63090;BME280;49174;43.198;27.824;2023-11-19T01:01:49;100743.72;;;2.63;100.00
63090;BME280;49174;43.198;27.824;2023-11-19T01:04:15;100750.69;;;2.64;100.00
63090;BME280;49174;43.198;27.824;2023-11-19T01:06:40;100773.72;;;2.65;100.00
63090;BME280;49174;43.198;27.824;2023-11-19T01:09:08;100755.34;;;2.62;100.00
63090;BME280;49174;43.198;27.824;2023-11-19T01:11:34;100777.22;;;2.66;100.00
63090;BME280;49174;43.198;27.824;2023-11-19T01:14:00;100777.09;;;2.67;100.00
63090;BME280;49174;43.198;27.824;2023-11-19T01:16:26;100766.25;;;2.69;100.00
63090;BME280;49174;43.198;27.824;2023-11-19T01:18:52;100778.59;;;2.70;100.00
63090;BME280;49174;43.198;27.824;2023-11-19T01:21:18;100776.78;;;2.71;100.00
63090;BME280;49174;43.198;27.824;2023-11-19T01:23:43;100794.44;;;2.72;100.00
63090;BME280;49174;43.198;27.824;2023-11-19T01:26:10;100785.16;;;2.76;100.00
63090;BME280;49174;43.198;27.824;2023-11-19T01:28:36;100789.81;;;2.74;100.00
63090;BME280;49174;43.198;27.824;2023-11-19T01:31:02;100793.44;;;2.73;100.00
63090;BME280;49174;43.198;27.824;2023-11-19T01:33:28;100805.22;;;2.70;100.00
63090;BME280;49174;43.198;27.824;2023-11-19T01:35:54;100812.09;;;2.73;100.00
63090;BME280;49174;43.198;27.824;2023-11-19T01:38:19;100815.75;;;2.72;100.00
63090;BME280;49174;43.198;27.824;2023-11-19T01:40:45;100815.75;;;2.72;100.00
63090;BME280;49174;43.198;27.824;2023-11-19T01:43:10;100823.03;;;2.69;100.00
63090;BME280;49174;43.198;27.824;2023-11-19T01:45:40;100812.38;;;2.69;100.00
63090;BME280;49174;43.198;27.824;2023-11-19T01:48:06;100826.00;;;2.66;100.00
63090;BME280;49174;43.198;27.824;2023-11-19T01:50:32;100834.81;;;2.67;100.00
63090;BME280;49174;43.198;27.824;2023-11-19T01:52:58;100826.16;;;2.65;100.00
63090;BME280;49174;43.198;27.824;2023-11-19T01:55:25;100829.94;;;2.62;100.00
63090;BME280;49174;43.198;27.824;2023-11-19T01:57:55;100830.06;;;2.61;100.00
63090;BME280;49174;43.198;27.824;2023-11-19T02:00:24;100835.00;;;2.56;100.00
63090;BME280;49174;43.198;27.824;2023-11-19T02:02:50;100827.84;;;2.56;100.00
63090;BME280;49174;43.198;27.824;2023-11-19T02:05:17;100843.25;;;2.53;100.00
63090;BME280;49174;43.198;27.824;2023-11-19T02:07:43;100835.28;;;2.53;100.00
63090;BME280;49174;43.198;27.824;2023-11-19T02:10:09;100844.09;;;2.53;100.00
63090;BME280;49174;43.198;27.824;2023-11-19T02:12:42;100845.09;;;2.52;100.00
63090;BME280;49174;43.198;27.824;2023-11-19T02:15:09;100845.94;;;2.53;100.00
63090;BME280;49174;43.198;27.824;2023-11-19T02:17:35;100842.56;;;2.51;100.00
63090;BME280;49174;43.198;27.824;2023-11-19T02:20:03;100853.66;;;2.46;100.00
63090;BME280;49174;43.198;27.824;2023-11-19T02:22:32;100864.31;;;2.46;100.00
63090;BME280;49174;43.198;27.824;2023-11-19T02:25:04;100860.38;;;2.50;100.00
63090;BME280;49174;43.198;27.824;2023-11-19T02:30:11;100870.19;;;2.50;100.00
63090;BME280;49174;43.198;27.824;2023-11-19T02:32:36;100870.59;;;2.45;100.00
63090;BME280;49174;43.198;27.824;2023-11-19T02:35:06;100874.41;;;2.42;100.00
63090;BME280;49174;43.198;27.824;2023-11-19T02:37:38;100869.50;;;2.38;100.00
63090;BME280;49174;43.198;27.824;2023-11-19T02:40:05;100861.50;;;2.38;100.00
63090;BME280;49174;43.198;27.824;2023-11-19T02:42:33;100872.44;;;2.35;100.00
63090;BME280;49174;43.198;27.824;2023-11-19T02:44:59;100894.03;;;2.32;100.00
63090;BME280;49174;43.198;27.824;2023-11-19T02:47:25;100875.50;;;2.30;100.00
63090;BME280;49174;43.198;27.824;2023-11-19T02:49:50;100876.34;;;2.31;100.00
63090;BME280;49174;43.198;27.824;2023-11-19T02:52:16;100878.88;;;2.32;100.00
63090;BME280;49174;43.198;27.824;2023-11-19T02:54:43;100888.41;;;2.35;100.00
63090;BME280;49174;43.198;27.824;2023-11-19T02:57:08;100896.53;;;2.33;100.00
63090;BME280;49174;43.198;27.824;2023-11-19T02:59:38;100910.69;;;2.34;100.00
63090;BME280;49174;43.198;27.824;2023-11-19T03:02:05;100902.00;;;2.32;100.00
63090;BME280;49174;43.198;27.824;2023-11-19T03:04:33;100905.63;;;2.31;100.00
63090;BME280;49174;43.198;27.824;2023-11-19T03:06:59;100885.63;;;2.27;100.00
63090;BME280;49174;43.198;27.824;2023-11-19T03:09:24;100922.88;;;2.27;100.00
63090;BME280;49174;43.198;27.824;2023-11-19T03:11:50;100916.44;;;2.29;100.00
63090;BME280;49174;43.198;27.824;2023-11-19T03:14:15;100928.22;;;2.27;100.00
63090;BME280;49174;43.198;27.824;2023-11-19T03:16:45;100925.28;;;2.30;100.00
63090;BME280;49174;43.198;27.824;2023-11-19T03:19:11;100921.78;;;2.29;100.00
63090;BME280;49174;43.198;27.824;2023-11-19T03:21:37;100934.94;;;2.31;100.00
63090;BME280;49174;43.198;27.824;2023-11-19T03:24:03;100933.25;;;2.30;100.00
63090;BME280;49174;43.198;27.824;2023-11-19T03:26:29;100943.06;;;2.29;100.00
63090;BME280;49174;43.198;27.824;2023-11-19T03:28:54;100950.91;;;2.31;100.00
63090;BME280;49174;43.198;27.824;2023-11-19T03:31:22;100949.06;;;2.31;100.00
63090;BME280;49174;43.198;27.824;2023-11-19T03:33:48;100951.75;;;2.31;100.00
63090;BME280;49174;43.198;27.824;2023-11-19T03:36:13;100960.00;;;2.28;100.00
63090;BME280;49174;43.198;27.824;2023-11-19T03:38:39;100958.34;;;2.27;100.00
63090;BME280;49174;43.198;27.824;2023-11-19T03:41:13;100955.41;;;2.30;100.00
63090;BME280;49174;43.198;27.824;2023-11-19T03:43:40;100950.22;;;2.29;100.00
63090;BME280;49174;43.198;27.824;2023-11-19T03:46:21;100961.56;;;2.31;100.00
63090;BME280;49174;43.198;27.824;2023-11-19T03:48:48;100954.56;;;2.30;100.00
63090;BME280;49174;43.198;27.824;2023-11-19T03:51:14;100946.97;;;2.25;100.00
63090;BME280;49174;43.198;27.824;2023-11-19T03:53:44;100939.97;;;2.24;100.00
63090;BME280;49174;43.198;27.824;2023-11-19T03:56:11;100939.97;;;2.24;100.00
63090;BME280;49174;43.198;27.824;2023-11-19T03:58:37;100932.00;;;2.24;100.00
63090;BME280;49174;43.198;27.824;2023-11-19T04:01:11;100936.91;;;2.29;100.00
63090;BME280;49174;43.198;27.824;2023-11-19T04:03:37;100943.19;;;2.28;100.00
63090;BME280;49174;43.198;27.824;2023-11-19T04:06:03;100947.28;;;2.32;100.00
63090;BME280;49174;43.198;27.824;2023-11-19T04:08:29;100937.47;;;2.32;100.00
63090;BME280;49174;43.198;27.824;2023-11-19T04:10:54;100952.31;;;2.35;100.00
63090;BME280;49174;43.198;27.824;2023-11-19T04:13:20;100956.81;;;2.34;100.00
63090;BME280;49174;43.198;27.824;2023-11-19T04:15:46;100954.00;;;2.36;100.00
63090;BME280;49174;43.198;27.824;2023-11-19T04:18:11;100943.22;;;2.37;100.00
63090;BME280;49174;43.198;27.824;2023-11-19T04:20:37;100968.75;;;2.40;100.00
63090;BME280;49174;43.198;27.824;2023-11-19T04:23:02;100947.44;;;2.40;100.00
63090;BME280;49174;43.198;27.824;2023-11-19T04:25:28;100970.13;;;2.44;100.00
63090;BME280;49174;43.198;27.824;2023-11-19T04:27:54;100972.78;;;2.44;100.00
63090;BME280;49174;43.198;27.824;2023-11-19T04:30:19;100952.91;;;2.48;100.00
63090;BME280;49174;43.198;27.824;2023-11-19T04:32:45;100972.22;;;2.50;100.00
63090;BME280;49174;43.198;27.824;2023-11-19T04:35:10;100976.72;;;2.50;100.00
63090;BME280;49174;43.198;27.824;2023-11-19T04:37:36;100982.88;;;2.50;100.00
63090;BME280;49174;43.198;27.824;2023-11-19T04:40:03;100981.22;;;2.49;100.00
63090;BME280;49174;43.198;27.824;2023-11-19T04:42:29;100993.53;;;2.50;100.00
63090;BME280;49174;43.198;27.824;2023-11-19T04:44:55;100988.91;;;2.52;100.00
63090;BME280;49174;43.198;27.824;2023-11-19T04:47:21;100982.59;;;2.53;100.00
63090;BME280;49174;43.198;27.824;2023-11-19T04:49:46;100968.31;;;2.54;100.00
63090;BME280;49174;43.198;27.824;2023-11-19T04:52:12;100968.31;;;2.54;100.00
63090;BME280;49174;43.198;27.824;2023-11-19T04:54:44;100990.75;;;2.52;100.00
63090;BME280;49174;43.198;27.824;2023-11-19T04:57:10;100979.09;;;2.53;100.00
63090;BME280;49174;43.198;27.824;2023-11-19T04:59:38;100992.69;;;2.50;100.00
63090;BME280;49174;43.198;27.824;2023-11-19T05:02:04;100989.19;;;2.49;100.00
63090;BME280;49174;43.198;27.824;2023-11-19T05:04:30;100981.63;;;2.44;100.00
63090;BME280;49174;43.198;27.824;2023-11-19T05:06:56;100990.19;;;2.48;99.01
63090;BME280;49174;43.198;27.824;2023-11-19T05:09:22;100994.09;;;2.44;100.00
63090;BME280;49174;43.198;27.824;2023-11-19T05:11:47;101003.63;;;2.46;99.41
63090;BME280;49174;43.198;27.824;2023-11-19T05:14:14;101007.41;;;2.44;100.00
63090;BME280;49174;43.198;27.824;2023-11-19T05:16:40;101021.72;;;2.43;99.88
63090;BME280;49174;43.198;27.824;2023-11-19T05:19:08;101013.00;;;2.41;100.00
63090;BME280;49174;43.198;27.824;2023-11-19T05:21:34;101013.41;;;2.36;99.79
63090;BME280;49174;43.198;27.824;2023-11-19T05:24:02;101027.00;;;2.33;99.57
63090;BME280;49174;43.198;27.824;2023-11-19T05:26:30;101015.66;;;2.31;98.03
63090;BME280;49174;43.198;27.824;2023-11-19T05:28:55;101037.38;;;2.27;99.21
63090;BME280;49174;43.198;27.824;2023-11-19T05:31:21;101027.56;;;2.27;99.88
63090;BME280;49174;43.198;27.824;2023-11-19T05:33:47;101074.50;;;2.28;98.52
63090;BME280;49174;43.198;27.824;2023-11-19T05:36:12;101019.56;;;2.27;97.69
63090;BME280;49174;43.198;27.824;2023-11-19T05:38:38;101020.41;;;2.28;98.11
63090;BME280;49174;43.198;27.824;2023-11-19T05:41:05;101041.88;;;2.26;96.82
63090;BME280;49174;43.198;27.824;2023-11-19T05:43:31;101065.66;;;2.28;97.62
63090;BME280;49174;43.198;27.824;2023-11-19T05:45:56;101057.97;;;2.24;97.36
63090;BME280;49174;43.198;27.824;2023-11-19T05:48:22;101064.28;;;2.23;96.94
63090;BME280;49174;43.198;27.824;2023-11-19T05:50:50;101081.91;;;2.24;97.80
63090;BME280;49174;43.198;27.824;2023-11-19T05:53:16;101073.09;;;2.24;96.04
63090;BME280;49174;43.198;27.824;2023-11-19T05:55:41;101089.06;;;2.24;96.96
63090;BME280;49174;43.198;27.824;2023-11-19T05:58:29;101076.47;;;2.26;97.08
63090;BME280;49174;43.198;27.824;2023-11-19T06:00:56;101077.84;;;2.20;96.30
63090;BME280;49174;43.198;27.824;2023-11-19T06:03:22;101092.13;;;2.19;95.30
63090;BME280;49174;43.198;27.824;2023-11-19T06:05:48;101070.13;;;2.17;95.64
63090;BME280;49174;43.198;27.824;2023-11-19T06:08:14;101131.38;;;2.17;95.76
63090;BME280;49174;43.198;27.824;2023-11-19T06:10:40;101117.34;;;2.15;94.58
63090;BME280;49174;43.198;27.824;2023-11-19T06:13:06;101112.00;;;2.15;93.96
63090;BME280;49174;43.198;27.824;2023-11-19T06:15:33;101100.53;;;2.15;94.46
63090;BME280;49174;43.198;27.824;2023-11-19T06:17:58;101105.53;;;2.08;93.36
63090;BME280;49174;43.198;27.824;2023-11-19T06:20:32;101093.19;;;2.07;93.85
63090;BME280;49174;43.198;27.824;2023-11-19T06:22:58;101090.53;;;2.07;92.32
63090;BME280;49174;43.198;27.824;2023-11-19T06:25:24;101076.50;;;2.05;92.81
63090;BME280;49174;43.198;27.824;2023-11-19T06:27:50;101093.91;;;2.09;92.04
63090;BME280;49174;43.198;27.824;2023-11-19T06:30:16;101099.38;;;2.08;91.14
63090;BME280;49174;43.198;27.824;2023-11-19T06:32:42;101104.94;;;2.05;91.56
63090;BME280;49174;43.198;27.824;2023-11-19T06:35:08;101084.22;;;2.08;91.45
63090;BME280;49174;43.198;27.824;2023-11-19T06:37:35;101101.91;;;2.09;91.81
63090;BME280;49174;43.198;27.824;2023-11-19T06:40:01;101107.22;;;2.09;90.08
63090;BME280;49174;43.198;27.824;2023-11-19T06:42:26;101103.47;;;2.12;89.64
63090;BME280;49174;43.198;27.824;2023-11-19T06:44:52;101113.97;;;2.13;91.41
63090;BME280;49174;43.198;27.824;2023-11-19T06:47:18;101114.94;;;2.12;90.28
63090;BME280;49174;43.198;27.824;2023-11-19T06:49:44;101115.59;;;2.05;89.12
63090;BME280;49174;43.198;27.824;2023-11-19T06:52:10;101108.91;;;2.10;90.02
63090;BME280;49174;43.198;27.824;2023-11-19T06:54:35;101123.78;;;2.13;90.55
63090;BME280;49174;43.198;27.824;2023-11-19T06:57:01;101118.72;;;2.10;89.96
63090;BME280;49174;43.198;27.824;2023-11-19T06:59:28;101124.88;;;2.10;90.06
63090;BME280;49174;43.198;27.824;2023-11-19T07:01:55;101162.41;;;2.07;90.08
63090;BME280;49174;43.198;27.824;2023-11-19T07:04:20;101144.88;;;2.05;89.80
63090;BME280;49174;43.198;27.824;2023-11-19T07:06:46;101183.69;;;2.07;91.02
63090;BME280;49174;43.198;27.824;2023-11-19T07:09:11;101161.69;;;2.05;89.55
63090;BME280;49174;43.198;27.824;2023-11-19T07:11:40;101146.44;;;2.07;90.16
63090;BME280;49174;43.198;27.824;2023-11-19T07:14:07;101171.81;;;2.11;89.61
63090;BME280;49174;43.198;27.824;2023-11-19T07:16:34;101172.53;;;2.13;89.82
63090;BME280;49174;43.198;27.824;2023-11-19T07:19:00;101178.69;;;2.14;90.75
63090;BME280;49174;43.198;27.824;2023-11-19T07:21:26;101173.25;;;2.15;92.05
63090;BME280;49174;43.198;27.824;2023-11-19T07:23:54;101182.06;;;2.16;90.31
63090;BME280;49174;43.198;27.824;2023-11-19T07:26:20;101178.56;;;2.15;92.16
63090;BME280;49174;43.198;27.824;2023-11-19T07:28:48;101186.56;;;2.15;91.84
63090;BME280;49174;43.198;27.824;2023-11-19T07:31:13;101193.81;;;2.13;92.16
63090;BME280;49174;43.198;27.824;2023-11-19T07:33:39;101195.91;;;2.10;90.66
63090;BME280;49174;43.198;27.824;2023-11-19T07:36:10;101181.16;;;2.06;92.59
63090;BME280;49174;43.198;27.824;2023-11-19T07:38:36;101182.72;;;2.08;91.34
63090;BME280;49174;43.198;27.824;2023-11-19T07:41:01;101187.09;;;2.09;91.09
63090;BME280;49174;43.198;27.824;2023-11-19T07:43:27;101185.13;;;2.11;90.20
63090;BME280;49174;43.198;27.824;2023-11-19T07:45:52;101187.09;;;2.09;89.38
63090;BME280;49174;43.198;27.824;2023-11-19T07:48:18;101190.16;;;2.14;89.94
63090;BME280;49174;43.198;27.824;2023-11-19T07:50:49;101174.91;;;2.16;90.13
63090;BME280;49174;43.198;27.824;2023-11-19T07:53:19;101178.31;;;2.18;90.99
63090;BME280;49174;43.198;27.824;2023-11-19T07:55:45;101182.06;;;2.16;90.52
63090;BME280;49174;43.198;27.824;2023-11-19T07:58:11;101171.41;;;2.16;90.54
63090;BME280;49174;43.198;27.824;2023-11-19T08:00:37;101176.84;;;2.14;90.61
63090;BME280;49174;43.198;27.824;2023-11-19T08:03:03;101175.91;;;2.15;91.86
63090;BME280;49174;43.198;27.824;2023-11-19T08:05:30;101165.38;;;2.14;92.08
63090;BME280;49174;43.198;27.824;2023-11-19T08:07:56;101178.47;;;2.27;94.30
63090;BME280;49174;43.198;27.824;2023-11-19T08:10:22;101178.03;;;2.52;94.33
63090;BME280;49174;43.198;27.824;2023-11-19T08:12:48;101181.88;;;2.69;93.40
63090;BME280;49174;43.198;27.824;2023-11-19T08:15:14;101196.75;;;2.72;92.39
63090;BME280;49174;43.198;27.824;2023-11-19T08:17:39;101201.09;;;2.73;92.54
63090;BME280;49174;43.198;27.824;2023-11-19T08:20:05;101204.75;;;2.72;92.06
63090;BME280;49174;43.198;27.824;2023-11-19T08:22:35;101203.28;;;2.48;89.53
63090;BME280;49174;43.198;27.824;2023-11-19T08:25:01;101190.03;;;2.37;90.55
63090;BME280;49174;43.198;27.824;2023-11-19T08:27:28;101185.09;;;2.32;92.49
63090;BME280;49174;43.198;27.824;2023-11-19T08:29:54;101196.28;;;2.26;91.51
63090;BME280;49174;43.198;27.824;2023-11-19T08:32:23;101198.06;;;2.26;91.94
63090;BME280;49174;43.198;27.824;2023-11-19T08:34:49;101216.72;;;2.26;91.76
63090;BME280;49174;43.198;27.824;2023-11-19T08:37:14;101191.53;;;2.30;92.23
63090;BME280;49174;43.198;27.824;2023-11-19T08:39:40;101182.72;;;2.29;91.68
63090;BME280;49174;43.198;27.824;2023-11-19T08:42:07;101197.84;;;2.29;91.84
63090;BME280;49174;43.198;27.824;2023-11-19T08:44:32;101192.53;;;2.29;93.06
63090;BME280;49174;43.198;27.824;2023-11-19T08:46:58;101188.59;;;2.33;91.89
63090;BME280;49174;43.198;27.824;2023-11-19T08:49:23;101192.38;;;2.30;91.98
63090;BME280;49174;43.198;27.824;2023-11-19T08:51:49;101179.44;;;2.26;91.19
63090;BME280;49174;43.198;27.824;2023-11-19T08:54:14;101169.50;;;2.28;92.23
63090;BME280;49174;43.198;27.824;2023-11-19T08:56:40;101159.97;;;2.25;91.54
63090;BME280;49174;43.198;27.824;2023-11-19T08:59:06;101154.66;;;2.25;90.01
63090;BME280;49174;43.198;27.824;2023-11-19T09:01:32;101147.94;;;2.31;90.00
63090;BME280;49174;43.198;27.824;2023-11-19T09:03:57;101135.34;;;2.33;89.27
63090;BME280;49174;43.198;27.824;2023-11-19T09:06:23;101123.47;;;2.37;88.71
63090;BME280;49174;43.198;27.824;2023-11-19T09:08:48;101137.19;;;2.42;86.91
63090;BME280;49174;43.198;27.824;2023-11-19T09:11:14;101161.16;;;2.42;87.07
63090;BME280;49174;43.198;27.824;2023-11-19T09:13:39;101155.84;;;2.42;86.14
63090;BME280;49174;43.198;27.824;2023-11-19T09:16:05;101140.56;;;2.44;86.04
63090;BME280;49174;43.198;27.824;2023-11-19T09:18:31;101129.91;;;2.44;85.41
63090;BME280;49174;43.198;27.824;2023-11-19T09:21:00;101156.16;;;2.49;85.93
63090;BME280;49174;43.198;27.824;2023-11-19T09:23:25;101142.03;;;2.58;85.10
63090;BME280;49174;43.198;27.824;2023-11-19T09:25:53;101121.44;;;2.60;85.25
63090;BME280;49174;43.198;27.824;2023-11-19T09:28:18;101129.53;;;2.58;84.26
63090;BME280;49174;43.198;27.824;2023-11-19T09:30:44;101121.97;;;2.54;84.17
63090;BME280;49174;43.198;27.824;2023-11-19T09:33:09;101121.72;;;2.57;84.90
63090;BME280;49174;43.198;27.824;2023-11-19T09:35:35;101115.25;;;2.59;85.01
63090;BME280;49174;43.198;27.824;2023-11-19T09:38:01;101123.38;;;2.58;83.17
63090;BME280;49174;43.198;27.824;2023-11-19T09:40:27;101119.22;;;2.65;84.96
63090;BME280;49174;43.198;27.824;2023-11-19T09:42:54;101117.81;;;2.71;84.43
63090;BME280;49174;43.198;27.824;2023-11-19T09:45:21;101118.78;;;2.69;83.32
63090;BME280;49174;43.198;27.824;2023-11-19T09:47:47;101141.47;;;2.64;82.94
63090;BME280;49174;43.198;27.824;2023-11-19T09:50:21;101135.88;;;2.67;83.36
63090;BME280;49174;43.198;27.824;2023-11-19T09:52:47;101134.19;;;2.66;83.33
63090;BME280;49174;43.198;27.824;2023-11-19T09:55:13;101166.63;;;2.71;82.75
63090;BME280;49174;43.198;27.824;2023-11-19T09:57:39;101153.16;;;2.73;83.23
63090;BME280;49174;43.198;27.824;2023-11-19T10:00:07;101170.25;;;2.70;82.17
63090;BME280;49174;43.198;27.824;2023-11-19T10:02:34;101154.41;;;2.68;83.09
63090;BME280;49174;43.198;27.824;2023-11-19T10:05:06;101155.81;;;2.73;83.41
63090;BME280;49174;43.198;27.824;2023-11-19T10:07:33;101175.06;;;2.76;83.82
63090;BME280;49174;43.198;27.824;2023-11-19T10:10:00;101155.41;;;2.77;82.30
63090;BME280;49174;43.198;27.824;2023-11-19T10:12:27;101182.91;;;2.78;82.07
63090;BME280;49174;43.198;27.824;2023-11-19T10:14:55;101179.69;;;2.84;81.87
63090;BME280;49174;43.198;27.824;2023-11-19T10:17:21;101148.84;;;2.91;83.32
63090;BME280;49174;43.198;27.824;2023-11-19T10:19:47;101163.06;;;3.01;81.54
63090;BME280;49174;43.198;27.824;2023-11-19T10:22:12;101169.94;;;3.04;81.39
63090;BME280;49174;43.198;27.824;2023-11-19T10:24:41;101175.13;;;3.05;81.12
63090;BME280;49174;43.198;27.824;2023-11-19T10:27:07;101170.22;;;3.10;80.29
63090;BME280;49174;43.198;27.824;2023-11-19T10:29:36;101158.44;;;3.23;80.09
63090;BME280;49174;43.198;27.824;2023-11-19T10:32:03;101158.84;;;3.28;80.25
63090;BME280;49174;43.198;27.824;2023-11-19T10:34:28;101165.34;;;3.35;79.74
63090;BME280;49174;43.198;27.824;2023-11-19T10:36:55;101167.00;;;3.36;78.21
63090;BME280;49174;43.198;27.824;2023-11-19T10:39:21;101168.28;;;3.32;76.60
63090;BME280;49174;43.198;27.824;2023-11-19T10:41:48;101176.44;;;3.60;77.22
63090;BME280;49174;43.198;27.824;2023-11-19T10:44:31;101177.41;;;3.88;75.40
63090;BME280;49174;43.198;27.824;2023-11-19T10:46:56;101186.78;;;4.01;75.12
63090;BME280;49174;43.198;27.824;2023-11-19T10:49:22;101167.22;;;4.01;74.71
63090;BME280;49174;43.198;27.824;2023-11-19T10:51:48;101194.53;;;3.85;75.08
63090;BME280;49174;43.198;27.824;2023-11-19T10:54:18;101190.03;;;3.76;75.60
63090;BME280;49174;43.198;27.824;2023-11-19T10:56:44;101206.31;;;3.73;76.31
63090;BME280;49174;43.198;27.824;2023-11-19T10:59:14;101229.50;;;3.72;76.52
63090;BME280;49174;43.198;27.824;2023-11-19T11:01:45;101238.63;;;3.70;76.10
63090;BME280;49174;43.198;27.824;2023-11-19T11:04:14;101264.66;;;3.68;77.80
63090;BME280;49174;43.198;27.824;2023-11-19T11:06:43;101250.31;;;3.69;75.90
63090;BME280;49174;43.198;27.824;2023-11-19T11:09:10;101255.25;;;3.73;76.71
63090;BME280;49174;43.198;27.824;2023-11-19T11:11:40;101280.53;;;3.79;76.51
63090;BME280;49174;43.198;27.824;2023-11-19T11:14:06;101278.53;;;3.81;76.76
63090;BME280;49174;43.198;27.824;2023-11-19T11:16:34;101303.81;;;3.87;77.48
63090;BME280;49174;43.198;27.824;2023-11-19T11:19:01;101298.09;;;3.91;79.67
63090;BME280;49174;43.198;27.824;2023-11-19T11:21:27;101314.09;;;4.11;79.11
63090;BME280;49174;43.198;27.824;2023-11-19T11:29:44;101341.47;;;4.71;78.63
63090;BME280;49174;43.198;27.824;2023-11-19T11:32:37;101340.31;;;4.83;77.64
63090;BME280;49174;43.198;27.824;2023-11-19T11:35:36;101343.50;;;4.97;79.05
63090;BME280;49174;43.198;27.824;2023-11-19T11:38:08;101360.75;;;5.12;79.34
63090;BME280;49174;43.198;27.824;2023-11-19T11:40:34;101368.50;;;5.15;76.93
63090;BME280;49174;43.198;27.824;2023-11-19T11:43:02;101373.41;;;5.20;76.59
63090;BME280;49174;43.198;27.824;2023-11-19T11:45:38;101374.66;;;5.25;77.91
63090;BME280;49174;43.198;27.824;2023-11-19T11:50:50;101404.84;;;5.55;78.29
63090;BME280;49174;43.198;27.824;2023-11-19T11:53:18;101427.03;;;5.65;77.87
63090;BME280;49174;43.198;27.824;2023-11-19T11:58:26;101416.00;;;5.68;76.00
63090;BME280;49174;43.198;27.824;2023-11-19T12:00:52;101414.34;;;5.67;77.33
63090;BME280;49174;43.198;27.824;2023-11-19T12:03:22;101412.97;;;5.63;76.54
63090;BME280;49174;43.198;27.824;2023-11-19T12:05:48;101415.66;;;5.63;78.00
63090;BME280;49174;43.198;27.824;2023-11-19T12:08:15;101417.75;;;5.59;76.81
63090;BME280;49174;43.198;27.824;2023-11-19T12:13:12;101415.53;;;5.55;77.52
63090;BME280;49174;43.198;27.824;2023-11-19T12:20:49;101410.03;;;5.19;78.27
63090;BME280;49174;43.198;27.824;2023-11-19T12:23:14;101414.56;;;5.09;79.60
63090;BME280;49174;43.198;27.824;2023-11-19T12:25:40;101418.09;;;5.00;79.06
63090;BME280;49174;43.198;27.824;2023-11-19T12:28:11;101421.06;;;4.97;79.68
63090;BME280;49174;43.198;27.824;2023-11-19T12:30:37;101420.22;;;4.86;78.98
63090;BME280;49174;43.198;27.824;2023-11-19T12:33:08;101424.88;;;4.84;80.70
63090;BME280;49174;43.198;27.824;2023-11-19T12:35:39;101423.47;;;4.80;80.47
63090;BME280;49174;43.198;27.824;2023-11-19T12:38:05;101420.50;;;4.83;80.89
63090;BME280;49174;43.198;27.824;2023-11-19T12:40:30;101410.38;;;4.87;81.90
63090;BME280;49174;43.198;27.824;2023-11-19T12:42:56;101425.00;;;4.92;81.24
63090;BME280;49174;43.198;27.824;2023-11-19T12:45:22;101426.00;;;4.91;81.48
63090;BME280;49174;43.198;27.824;2023-11-19T12:47:50;101435.81;;;5.01;81.51
63090;BME280;49174;43.198;27.824;2023-11-19T12:50:19;101442.00;;;5.01;82.29
63090;BME280;49174;43.198;27.824;2023-11-19T12:52:57;101440.50;;;4.99;80.19
63090;BME280;49174;43.198;27.824;2023-11-19T12:55:28;101450.31;;;5.08;82.16
63090;BME280;49174;43.198;27.824;2023-11-19T12:57:54;101450.75;;;5.13;80.61
63090;BME280;49174;43.198;27.824;2023-11-19T13:00:25;101446.06;;;5.15;80.45
63090;BME280;49174;43.198;27.824;2023-11-19T13:02:56;101441.28;;;5.19;80.03
63090;BME280;49174;43.198;27.824;2023-11-19T13:10:24;101417.78;;;5.12;81.67